Roanoke — WDD9656 — position and weather

sailwx.info

Track history (hours):
 
Tides and Currents Weather Stations Pressure Air Temp Water Temp Dewpoint Dewpoint Depression Visibility Wind Speed Wind Dir Waves Ship Positions

Roanoke

Owner: Vane Line Bunkering, Baltimore, MD. More information available from US FCC via Universal Licensing System and Coast Guard Vessel Documentation Center.

Last reported at 2017-Apr-30 13:00 UTC. Time now 2017-Apr-30 13:09 UTC.
Position N 39°15' W 076°34'.

Length 32 m; draft 13 m.

Type: Towing. MMSI: 367314510.

Date/timePositionNaut miles runAvg speedWind from/ knotsBaromVisibWave heightAir tempDewpointWater temp
2017-Apr-30 13:00N 39°15' W 076°34'0 0.0
2017-Apr-30 12:30N 39°15' W 076°34'0 0.0
2017-Apr-30 11:59N 39°15' W 076°34'0 0.0
2017-Apr-30 11:29N 39°15' W 076°34'0 0.0
2017-Apr-30 11:00N 39°15' W 076°34'0 0.0
2017-Apr-30 10:30N 39°15' W 076°34'0 0.0
2017-Apr-30 10:00N 39°15' W 076°34'0 0.0
2017-Apr-30 09:30N 39°15' W 076°34'0 0.0
2017-Apr-30 09:00N 39°15' W 076°34'0 0.0
2017-Apr-30 08:30N 39°15' W 076°34'0 0.0
2017-Apr-30 08:00N 39°15' W 076°34'0 0.0
2017-Apr-30 07:30N 39°15' W 076°34'0 0.0
2017-Apr-30 07:00N 39°15' W 076°34'0 0.0
2017-Apr-30 06:30N 39°15' W 076°34'0 0.0
2017-Apr-30 06:00N 39°15' W 076°34'0 0.0
2017-Apr-30 05:30N 39°15' W 076°34'0 0.0
2017-Apr-30 05:00N 39°15' W 076°34'0 0.0
2017-Apr-30 04:30N 39°15' W 076°34'0 0.0
2017-Apr-30 04:00N 39°15' W 076°34'0 0.0
2017-Apr-30 03:30N 39°15' W 076°34'0 0.0
2017-Apr-30 03:00N 39°15' W 076°34'0 0.0
2017-Apr-30 02:30N 39°15' W 076°34'0 0.0
2017-Apr-30 02:00N 39°15' W 076°34'0 0.0
2017-Apr-30 01:30N 39°15' W 076°34'0 0.0
2017-Apr-30 01:00N 39°15' W 076°34'0 0.0
2017-Apr-30 00:30N 39°15' W 076°34'0 0.0
2017-Apr-30 00:00N 39°15' W 076°34'0 0.0
2017-Apr-29 23:30N 39°15' W 076°34'0 0.0
2017-Apr-29 23:00N 39°15' W 076°34'0 0.0
2017-Apr-29 22:30N 39°15' W 076°34'0 0.0
2017-Apr-29 22:00N 39°15' W 076°34'0 0.0
2017-Apr-29 21:30N 39°15' W 076°34'0 0.0
2017-Apr-29 21:00N 39°15' W 076°34'0 0.0
2017-Apr-29 20:30N 39°15' W 076°34'0 0.0
2017-Apr-29 20:00N 39°15' W 076°34'0 0.0
2017-Apr-29 19:30N 39°15' W 076°34'0 0.0
2017-Apr-29 19:00N 39°15' W 076°34'0 0.0
2017-Apr-29 18:30N 39°15' W 076°34'0 0.0
2017-Apr-29 18:00N 39°15' W 076°34'0 0.0
2017-Apr-29 17:30N 39°15' W 076°34'0 0.0
2017-Apr-29 17:00N 39°15' W 076°34'0 0.0
2017-Apr-29 16:30N 39°15' W 076°34'0 0.0
2017-Apr-29 16:00N 39°15' W 076°34'0 0.0
2017-Apr-29 15:30N 39°15' W 076°34'0 0.0
2017-Apr-29 15:00N 39°15' W 076°34'0 0.0
2017-Apr-29 14:30N 39°15' W 076°34'0 0.0
2017-Apr-29 14:00N 39°15' W 076°34'0 0.0
2017-Apr-29 13:30N 39°15' W 076°34'0 0.0
2017-Apr-29 13:00N 39°15' W 076°34'0 0.0
2017-Apr-29 12:30N 39°15' W 076°34'0 0.0
2017-Apr-29 12:00N 39°15' W 076°34'0 0.0
2017-Apr-29 11:30N 39°15' W 076°34'0 0.0
2017-Apr-29 11:00N 39°15' W 076°34'0 0.0
2017-Apr-29 10:30N 39°15' W 076°34'0 0.0
2017-Apr-29 10:00N 39°15' W 076°34'0 0.0
2017-Apr-29 09:30N 39°15' W 076°34'0 0.0
2017-Apr-29 09:00N 39°15' W 076°34'0 0.0
2017-Apr-29 08:30N 39°15' W 076°34'0 0.0
2017-Apr-29 08:00N 39°15' W 076°34'0 0.0
2017-Apr-29 07:30N 39°15' W 076°34'0 0.9
2017-Apr-29 07:00N 39°15' W 076°34'0 0.9
2017-Apr-29 06:30N 39°15' W 076°33'4 8.3
2017-Apr-29 06:00N 39°12' W 076°30'5 8.0
2017-Apr-29 05:23N 39°09' W 076°25'10 7.5
2017-Apr-29 04:01N 38°59' W 076°23'0 6.5
2017-Apr-29 03:57N 38°59' W 076°24'8 7.3
2017-Apr-29 02:52N 38°51' W 076°26'43 9.1
2017-Apr-28 22:10N 38°09' W 076°17'2 9.3
2017-Apr-28 21:59N 38°07' W 076°17'5 9.5
2017-Apr-28 21:30N 38°03' W 076°17'4 6.4
2017-Apr-28 20:56N 38°02' W 076°21'6 8.9
2017-Apr-28 20:18N 38°05' W 076°28'3 8.8
2017-Apr-28 19:58N 38°06' W 076°31'44 6.7
2017-Apr-28 13:21N 38°39' W 077°08'3 7.8
2017-Apr-28 12:59N 38°42' W 077°06'4 7.6
2017-Apr-28 12:30N 38°44' W 077°02'4 7.8
2017-Apr-28 12:00N 38°48' W 077°02'3 5.2
2017-Apr-28 11:29N 38°50' W 077°02'2 3.7
2017-Apr-28 11:00N 38°52' W 077°00'0 0.2
2017-Apr-28 10:30N 38°52' W 077°00'0 0.0
2017-Apr-28 09:59N 38°52' W 077°00'0 0.0
2017-Apr-28 09:28N 38°52' W 077°00'0 0.0
2017-Apr-28 09:00N 38°52' W 077°00'0 0.0
2017-Apr-28 08:29N 38°52' W 077°00'0 0.0
2017-Apr-28 08:00N 38°52' W 077°00'0 0.0
2017-Apr-28 07:29N 38°52' W 077°00'0 0.0
2017-Apr-28 06:59N 38°52' W 077°00'0 0.0
2017-Apr-28 06:28N 38°52' W 077°00'0 0.0
2017-Apr-28 06:00N 38°52' W 077°00'0 0.0
2017-Apr-28 05:30N 38°52' W 077°00'0 0.0
2017-Apr-28 05:00N 38°52' W 077°00'0 0.0
2017-Apr-28 04:30N 38°52' W 077°00'0 0.0
2017-Apr-28 03:59N 38°52' W 077°00'0 0.0
2017-Apr-28 03:29N 38°52' W 077°00'0 0.0
2017-Apr-28 03:00N 38°52' W 077°00'0 0.0
2017-Apr-28 02:30N 38°52' W 077°00'0 0.0
2017-Apr-28 01:59N 38°52' W 077°00'0 0.0
2017-Apr-28 01:29N 38°52' W 077°00'0 0.0
2017-Apr-28 00:59N 38°52' W 077°00'0 0.0
2017-Apr-28 00:28N 38°52' W 077°00'0 0.0
2017-Apr-27 23:58N 38°52' W 077°00'0 0.0
2017-Apr-27 23:30N 38°52' W 077°00'0 0.0
2017-Apr-27 23:01N 38°52' W 077°00'0 0.0
2017-Apr-27 22:30N 38°52' W 077°00'0 0.0
2017-Apr-27 22:00N 38°52' W 077°00'0 0.0
2017-Apr-27 21:30N 38°52' W 077°00'0 0.0
2017-Apr-27 21:00N 38°52' W 077°00'0 0.0
2017-Apr-27 20:29N 38°52' W 077°00'0 0.0
2017-Apr-27 20:00N 38°52' W 077°00'0 0.0
2017-Apr-27 19:28N 38°52' W 077°00'0 0.0
2017-Apr-27 19:00N 38°52' W 077°00'0 0.0
2017-Apr-27 18:29N 38°52' W 077°00'0 0.0
2017-Apr-27 18:00N 38°52' W 077°00'0 0.0
2017-Apr-27 17:30N 38°52' W 077°00'0 0.0
2017-Apr-27 16:59N 38°52' W 077°00'0 0.0
2017-Apr-27 16:29N 38°52' W 077°00'0 0.0
2017-Apr-27 16:00N 38°52' W 077°00'0 0.0
2017-Apr-27 15:30N 38°52' W 077°00'0 0.0
2017-Apr-27 14:58N 38°52' W 077°00'0 0.0
2017-Apr-27 14:00N 38°52' W 077°00'0 0.0
2017-Apr-27 13:30N 38°52' W 077°00'0 0.0
2017-Apr-27 12:59N 38°52' W 077°00'0 0.0
2017-Apr-27 12:29N 38°52' W 077°00'0 0.0
2017-Apr-27 11:59N 38°52' W 077°00'0 0.0
2017-Apr-27 11:30N 38°52' W 077°00'0 0.0
2017-Apr-27 11:00N 38°52' W 077°00'0 0.0
2017-Apr-27 10:31N 38°52' W 077°00'0 0.0
2017-Apr-27 10:00N 38°52' W 077°00'0 0.0
2017-Apr-27 09:29N 38°52' W 077°00'0 0.0
2017-Apr-27 09:00N 38°52' W 077°00'0 0.3
2017-Apr-27 08:29N 38°52' W 077°00'2 4.7
2017-Apr-27 08:00N 38°50' W 077°02'4 7.6
2017-Apr-27 07:30N 38°46' W 077°02'4 6.9
2017-Apr-27 06:54N 38°42' W 077°04'3 7.1
2017-Apr-27 06:26N 38°41' W 077°07'42 4.6
2017-Apr-26 21:17N 38°08' W 076°34'3 7.9
2017-Apr-26 20:56N 38°06' W 076°31'4 7.9
2017-Apr-26 20:29N 38°04' W 076°27'4 7.8
2017-Apr-26 20:00N 38°02' W 076°24'  
2017-Apr-22 20:58N 38°50' W 076°26'1010.0
2017-Apr-22 19:59N 38°60' W 076°23'6 9.2
2017-Apr-22 19:21N 39°06' W 076°24'3 9.0
2017-Apr-22 19:00N 39°09' W 076°25'4 8.8
2017-Apr-22 18:30N 39°11' W 076°29'5 9.1
2017-Apr-22 18:00N 39°14' W 076°33'0 0.3
2017-Apr-22 17:27N 39°14' W 076°33'1 0.7
2017-Apr-22 15:57N 39°14' W 076°34'0 0.0
2017-Apr-22 15:26N 39°14' W 076°34'1 2.5
2017-Apr-22 15:00N 39°15' W 076°34'0 0.1
2017-Apr-22 14:28N 39°15' W 076°34'0 0.0
2017-Apr-22 13:30N 39°15' W 076°34'0 0.0
2017-Apr-22 13:00N 39°15' W 076°34'0 0.0
2017-Apr-22 12:30N 39°15' W 076°34'0 0.0
2017-Apr-22 12:00N 39°15' W 076°34'0 0.0
2017-Apr-22 11:30N 39°15' W 076°34'1 2.1
2017-Apr-22 11:00N 39°15' W 076°33'0 0.0
2017-Apr-22 10:30N 39°15' W 076°33'0 0.0
2017-Apr-22 09:59N 39°15' W 076°33'0 0.0
2017-Apr-22 09:30N 39°15' W 076°33'0 0.0
2017-Apr-22 09:00N 39°15' W 076°33'0 0.0
2017-Apr-22 08:30N 39°15' W 076°33'0 0.0
2017-Apr-22 08:00N 39°15' W 076°33'0 0.0
2017-Apr-22 07:30N 39°15' W 076°33'0 0.0
2017-Apr-22 07:00N 39°15' W 076°33'0 0.0
2017-Apr-22 06:30N 39°15' W 076°33'0 0.0
2017-Apr-22 06:00N 39°15' W 076°33'0 0.0
2017-Apr-22 05:29N 39°15' W 076°33'0 0.0
2017-Apr-22 04:56N 39°15' W 076°33'0 0.0
2017-Apr-22 04:30N 39°15' W 076°33'0 0.0
2017-Apr-22 03:59N 39°15' W 076°33'0 0.0
2017-Apr-22 03:29N 39°15' W 076°33'0 0.0
2017-Apr-22 03:00N 39°15' W 076°33'0 0.0
2017-Apr-22 02:30N 39°15' W 076°33'0 0.0
2017-Apr-22 02:00N 39°15' W 076°33'0 0.0
2017-Apr-22 01:30N 39°15' W 076°33'0 0.0
2017-Apr-22 01:00N 39°15' W 076°33'0 0.0
2017-Apr-22 00:30N 39°15' W 076°33'0 0.0
2017-Apr-22 00:00N 39°15' W 076°33'0 0.0
2017-Apr-21 23:22N 39°15' W 076°33'0 0.0
2017-Apr-21 22:57N 39°15' W 076°33'0 0.0
2017-Apr-21 22:20N 39°15' W 076°33'0 0.0
2017-Apr-21 21:49N 39°15' W 076°33'0 0.0
2017-Apr-21 21:29N 39°15' W 076°33'0 0.0
2017-Apr-21 20:52N 39°15' W 076°33'0 0.0
2017-Apr-21 19:39N 39°15' W 076°33'0 0.0
2017-Apr-21 19:23N 39°15' W 076°33'0 0.0
2017-Apr-21 18:59N 39°15' W 076°33'0 0.0
2017-Apr-21 18:23N 39°15' W 076°33'0 0.0
2017-Apr-21 17:52N 39°15' W 076°33'0 0.0
2017-Apr-21 16:30N 39°15' W 076°33'0 0.0
2017-Apr-21 15:57N 39°15' W 076°33'0 0.0
2017-Apr-21 15:30N 39°15' W 076°33'1 1.6
2017-Apr-21 14:48N 39°15' W 076°34'0 0.0
2017-Apr-21 12:17N 39°15' W 076°34'0 0.0
2017-Apr-21 11:55N 39°15' W 076°34'0 0.1
2017-Apr-21 11:28N 39°15' W 076°34'1 2.4
2017-Apr-21 11:00N 39°15' W 076°33'0 0.0
2017-Apr-21 10:28N 39°15' W 076°33'0 0.0
2017-Apr-21 10:00N 39°15' W 076°33'0 0.0
2017-Apr-21 09:28N 39°15' W 076°33'0 0.0
2017-Apr-21 09:00N 39°15' W 076°33'0 0.0
2017-Apr-21 08:30N 39°15' W 076°33'0 0.0
2017-Apr-21 08:00N 39°15' W 076°33'0 0.0
2017-Apr-21 07:30N 39°15' W 076°33'0 0.0
2017-Apr-21 07:00N 39°15' W 076°33'0 0.0
2017-Apr-21 06:30N 39°15' W 076°33'0 0.0
2017-Apr-21 06:00N 39°15' W 076°33'0 0.0
2017-Apr-21 05:30N 39°15' W 076°33'1 1.3
2017-Apr-21 05:00N 39°15' W 076°33'5 9.4
2017-Apr-21 04:30N 39°12' W 076°29'4 8.5
2017-Apr-21 04:00N 39°12' W 076°23'5 9.1
2017-Apr-21 03:30N 39°15' W 076°19'6 9.3
2017-Apr-21 02:53N 39°19' W 076°13'410.8
2017-Apr-21 02:29N 39°21' W 076°09'610.5
2017-Apr-21 01:56N 39°24' W 076°02'410.4
2017-Apr-21 01:30N 39°28' W 075°59'510.3
2017-Apr-21 01:00N 39°31' W 075°53'5 9.5
2017-Apr-21 00:30N 39°32' W 075°48'510.3
2017-Apr-21 00:00N 39°33' W 075°41'5 9.6
2017-Apr-20 23:30N 39°34' W 075°35'4 7.8
2017-Apr-20 23:00N 39°30' W 075°33'510.3
2017-Apr-20 22:30N 39°25' W 075°31'510.8
2017-Apr-20 22:00N 39°21' W 075°26'510.7
2017-Apr-20 21:30N 39°17' W 075°22'4 9.0
2017-Apr-20 21:00N 39°13' W 075°21'3 6.2
2017-Apr-20 20:30N 39°11' W 075°24'0 0.0
2017-Apr-20 20:00N 39°11' W 075°24'0 0.0
2017-Apr-20 19:30N 39°11' W 075°24'0 0.0
2017-Apr-20 19:00N 39°11' W 075°24'0 0.0
2017-Apr-20 18:30N 39°11' W 075°24'0 0.0
2017-Apr-20 18:00N 39°11' W 075°24'0 0.0
2017-Apr-20 17:30N 39°11' W 075°24'0 0.0
2017-Apr-20 17:00N 39°11' W 075°24'0 0.0
2017-Apr-20 16:30N 39°11' W 075°24'0 0.0
2017-Apr-20 16:00N 39°11' W 075°24'0 0.0
2017-Apr-20 15:30N 39°11' W 075°24'0 0.0
2017-Apr-20 15:00N 39°11' W 075°24'0 0.0
2017-Apr-20 14:30N 39°11' W 075°24'0 0.0
2017-Apr-20 13:30N 39°11' W 075°24'0 0.0
2017-Apr-20 13:00N 39°11' W 075°24'  
Track history (hours):
 
Tides and Currents Weather Stations Pressure Air Temp Water Temp Dewpoint Dewpoint Depression Visibility Wind Speed Wind Dir Waves Ship Positions

Roanoke

Owner: Vane Line Bunkering, Baltimore, MD. More information available from US FCC via Universal Licensing System and Coast Guard Vessel Documentation Center.

Last reported at 2017-Apr-30 13:00 UTC. Time now 2017-Apr-30 13:09 UTC.
Position N 39°15' W 076°34'.

Length 32 m; draft 13 m.

Type: Towing. MMSI: 367314510.

Date/timePositionNaut miles runAvg speedWind from/ knotsBaromVisibWave heightAir tempDewpointWater temp
2017-Apr-30 13:00N 39°15' W 076°34'0 0.0
2017-Apr-30 12:30N 39°15' W 076°34'0 0.0
2017-Apr-30 11:59N 39°15' W 076°34'0 0.0
2017-Apr-30 11:29N 39°15' W 076°34'0 0.0
2017-Apr-30 11:00N 39°15' W 076°34'0 0.0
2017-Apr-30 10:30N 39°15' W 076°34'0 0.0
2017-Apr-30 10:00N 39°15' W 076°34'0 0.0
2017-Apr-30 09:30N 39°15' W 076°34'0 0.0
2017-Apr-30 09:00N 39°15' W 076°34'0 0.0
2017-Apr-30 08:30N 39°15' W 076°34'0 0.0
2017-Apr-30 08:00N 39°15' W 076°34'0 0.0
2017-Apr-30 07:30N 39°15' W 076°34'0 0.0
2017-Apr-30 07:00N 39°15' W 076°34'0 0.0
2017-Apr-30 06:30N 39°15' W 076°34'0 0.0
2017-Apr-30 06:00N 39°15' W 076°34'0 0.0
2017-Apr-30 05:30N 39°15' W 076°34'0 0.0
2017-Apr-30 05:00N 39°15' W 076°34'0 0.0
2017-Apr-30 04:30N 39°15' W 076°34'0 0.0
2017-Apr-30 04:00N 39°15' W 076°34'0 0.0
2017-Apr-30 03:30N 39°15' W 076°34'0 0.0
2017-Apr-30 03:00N 39°15' W 076°34'0 0.0
2017-Apr-30 02:30N 39°15' W 076°34'0 0.0
2017-Apr-30 02:00N 39°15' W 076°34'0 0.0
2017-Apr-30 01:30N 39°15' W 076°34'0 0.0
2017-Apr-30 01:00N 39°15' W 076°34'0 0.0
2017-Apr-30 00:30N 39°15' W 076°34'0 0.0
2017-Apr-30 00:00N 39°15' W 076°34'0 0.0
2017-Apr-29 23:30N 39°15' W 076°34'0 0.0
2017-Apr-29 23:00N 39°15' W 076°34'0 0.0
2017-Apr-29 22:30N 39°15' W 076°34'0 0.0
2017-Apr-29 22:00N 39°15' W 076°34'0 0.0
2017-Apr-29 21:30N 39°15' W 076°34'0 0.0
2017-Apr-29 21:00N 39°15' W 076°34'0 0.0
2017-Apr-29 20:30N 39°15' W 076°34'0 0.0
2017-Apr-29 20:00N 39°15' W 076°34'0 0.0
2017-Apr-29 19:30N 39°15' W 076°34'0 0.0
2017-Apr-29 19:00N 39°15' W 076°34'0 0.0
2017-Apr-29 18:30N 39°15' W 076°34'0 0.0
2017-Apr-29 18:00N 39°15' W 076°34'0 0.0
2017-Apr-29 17:30N 39°15' W 076°34'0 0.0
2017-Apr-29 17:00N 39°15' W 076°34'0 0.0
2017-Apr-29 16:30N 39°15' W 076°34'0 0.0
2017-Apr-29 16:00N 39°15' W 076°34'0 0.0
2017-Apr-29 15:30N 39°15' W 076°34'0 0.0
2017-Apr-29 15:00N 39°15' W 076°34'0 0.0
2017-Apr-29 14:30N 39°15' W 076°34'0 0.0
2017-Apr-29 14:00N 39°15' W 076°34'0 0.0
2017-Apr-29 13:30N 39°15' W 076°34'0 0.0
2017-Apr-29 13:00N 39°15' W 076°34'0 0.0
2017-Apr-29 12:30N 39°15' W 076°34'0 0.0
2017-Apr-29 12:00N 39°15' W 076°34'0 0.0
2017-Apr-29 11:30N 39°15' W 076°34'0 0.0
2017-Apr-29 11:00N 39°15' W 076°34'0 0.0
2017-Apr-29 10:30N 39°15' W 076°34'0 0.0
2017-Apr-29 10:00N 39°15' W 076°34'0 0.0
2017-Apr-29 09:30N 39°15' W 076°34'0 0.0
2017-Apr-29 09:00N 39°15' W 076°34'0 0.0
2017-Apr-29 08:30N 39°15' W 076°34'0 0.0
2017-Apr-29 08:00N 39°15' W 076°34'0 0.0
2017-Apr-29 07:30N 39°15' W 076°34'0 0.9
2017-Apr-29 07:00N 39°15' W 076°34'0 0.9
2017-Apr-29 06:30N 39°15' W 076°33'4 8.3
2017-Apr-29 06:00N 39°12' W 076°30'5 8.0
2017-Apr-29 05:23N 39°09' W 076°25'10 7.5
2017-Apr-29 04:01N 38°59' W 076°23'0 6.5
2017-Apr-29 03:57N 38°59' W 076°24'8 7.3
2017-Apr-29 02:52N 38°51' W 076°26'43 9.1
2017-Apr-28 22:10N 38°09' W 076°17'2 9.3
2017-Apr-28 21:59N 38°07' W 076°17'5 9.5
2017-Apr-28 21:30N 38°03' W 076°17'4 6.4
2017-Apr-28 20:56N 38°02' W 076°21'6 8.9
2017-Apr-28 20:18N 38°05' W 076°28'3 8.8
2017-Apr-28 19:58N 38°06' W 076°31'44 6.7
2017-Apr-28 13:21N 38°39' W 077°08'3 7.8
2017-Apr-28 12:59N 38°42' W 077°06'4 7.6
2017-Apr-28 12:30N 38°44' W 077°02'4 7.8
2017-Apr-28 12:00N 38°48' W 077°02'3 5.2
2017-Apr-28 11:29N 38°50' W 077°02'2 3.7
2017-Apr-28 11:00N 38°52' W 077°00'0 0.2
2017-Apr-28 10:30N 38°52' W 077°00'0 0.0
2017-Apr-28 09:59N 38°52' W 077°00'0 0.0
2017-Apr-28 09:28N 38°52' W 077°00'0 0.0
2017-Apr-28 09:00N 38°52' W 077°00'0 0.0
2017-Apr-28 08:29N 38°52' W 077°00'0 0.0
2017-Apr-28 08:00N 38°52' W 077°00'0 0.0
2017-Apr-28 07:29N 38°52' W 077°00'0 0.0
2017-Apr-28 06:59N 38°52' W 077°00'0 0.0
2017-Apr-28 06:28N 38°52' W 077°00'0 0.0
2017-Apr-28 06:00N 38°52' W 077°00'0 0.0
2017-Apr-28 05:30N 38°52' W 077°00'0 0.0
2017-Apr-28 05:00N 38°52' W 077°00'0 0.0
2017-Apr-28 04:30N 38°52' W 077°00'0 0.0
2017-Apr-28 03:59N 38°52' W 077°00'0 0.0
2017-Apr-28 03:29N 38°52' W 077°00'0 0.0
2017-Apr-28 03:00N 38°52' W 077°00'0 0.0
2017-Apr-28 02:30N 38°52' W 077°00'0 0.0
2017-Apr-28 01:59N 38°52' W 077°00'0 0.0
2017-Apr-28 01:29N 38°52' W 077°00'0 0.0
2017-Apr-28 00:59N 38°52' W 077°00'0 0.0
2017-Apr-28 00:28N 38°52' W 077°00'0 0.0
2017-Apr-27 23:58N 38°52' W 077°00'0 0.0
2017-Apr-27 23:30N 38°52' W 077°00'0 0.0
2017-Apr-27 23:01N 38°52' W 077°00'0 0.0
2017-Apr-27 22:30N 38°52' W 077°00'0 0.0
2017-Apr-27 22:00N 38°52' W 077°00'0 0.0
2017-Apr-27 21:30N 38°52' W 077°00'0 0.0
2017-Apr-27 21:00N 38°52' W 077°00'0 0.0
2017-Apr-27 20:29N 38°52' W 077°00'0 0.0
2017-Apr-27 20:00N 38°52' W 077°00'0 0.0
2017-Apr-27 19:28N 38°52' W 077°00'0 0.0
2017-Apr-27 19:00N 38°52' W 077°00'0 0.0
2017-Apr-27 18:29N 38°52' W 077°00'0 0.0
2017-Apr-27 18:00N 38°52' W 077°00'0 0.0
2017-Apr-27 17:30N 38°52' W 077°00'0 0.0
2017-Apr-27 16:59N 38°52' W 077°00'0 0.0
2017-Apr-27 16:29N 38°52' W 077°00'0 0.0
2017-Apr-27 16:00N 38°52' W 077°00'0 0.0
2017-Apr-27 15:30N 38°52' W 077°00'0 0.0
2017-Apr-27 14:58N 38°52' W 077°00'0 0.0
2017-Apr-27 14:00N 38°52' W 077°00'0 0.0
2017-Apr-27 13:30N 38°52' W 077°00'0 0.0
2017-Apr-27 12:59N 38°52' W 077°00'0 0.0
2017-Apr-27 12:29N 38°52' W 077°00'0 0.0
2017-Apr-27 11:59N 38°52' W 077°00'0 0.0
2017-Apr-27 11:30N 38°52' W 077°00'0 0.0
2017-Apr-27 11:00N 38°52' W 077°00'0 0.0
2017-Apr-27 10:31N 38°52' W 077°00'0 0.0
2017-Apr-27 10:00N 38°52' W 077°00'0 0.0
2017-Apr-27 09:29N 38°52' W 077°00'0 0.0
2017-Apr-27 09:00N 38°52' W 077°00'0 0.3
2017-Apr-27 08:29N 38°52' W 077°00'2 4.7
2017-Apr-27 08:00N 38°50' W 077°02'4 7.6
2017-Apr-27 07:30N 38°46' W 077°02'4 6.9
2017-Apr-27 06:54N 38°42' W 077°04'3 7.1
2017-Apr-27 06:26N 38°41' W 077°07'42 4.6
2017-Apr-26 21:17N 38°08' W 076°34'3 7.9
2017-Apr-26 20:56N 38°06' W 076°31'4 7.9
2017-Apr-26 20:29N 38°04' W 076°27'4 7.8
2017-Apr-26 20:00N 38°02' W 076°24'  
2017-Apr-22 20:58N 38°50' W 076°26'1010.0
2017-Apr-22 19:59N 38°60' W 076°23'6 9.2
2017-Apr-22 19:21N 39°06' W 076°24'3 9.0
2017-Apr-22 19:00N 39°09' W 076°25'4 8.8
2017-Apr-22 18:30N 39°11' W 076°29'5 9.1
2017-Apr-22 18:00N 39°14' W 076°33'0 0.3
2017-Apr-22 17:27N 39°14' W 076°33'1 0.7
2017-Apr-22 15:57N 39°14' W 076°34'0 0.0
2017-Apr-22 15:26N 39°14' W 076°34'1 2.5
2017-Apr-22 15:00N 39°15' W 076°34'0 0.1
2017-Apr-22 14:28N 39°15' W 076°34'0 0.0
2017-Apr-22 13:30N 39°15' W 076°34'0 0.0
2017-Apr-22 13:00N 39°15' W 076°34'0 0.0
2017-Apr-22 12:30N 39°15' W 076°34'0 0.0
2017-Apr-22 12:00N 39°15' W 076°34'0 0.0
2017-Apr-22 11:30N 39°15' W 076°34'1 2.1
2017-Apr-22 11:00N 39°15' W 076°33'0 0.0
2017-Apr-22 10:30N 39°15' W 076°33'0 0.0
2017-Apr-22 09:59N 39°15' W 076°33'0 0.0
2017-Apr-22 09:30N 39°15' W 076°33'0 0.0
2017-Apr-22 09:00N 39°15' W 076°33'0 0.0
2017-Apr-22 08:30N 39°15' W 076°33'0 0.0
2017-Apr-22 08:00N 39°15' W 076°33'0 0.0
2017-Apr-22 07:30N 39°15' W 076°33'0 0.0
2017-Apr-22 07:00N 39°15' W 076°33'0 0.0
2017-Apr-22 06:30N 39°15' W 076°33'0 0.0
2017-Apr-22 06:00N 39°15' W 076°33'0 0.0
2017-Apr-22 05:29N 39°15' W 076°33'0 0.0
2017-Apr-22 04:56N 39°15' W 076°33'0 0.0
2017-Apr-22 04:30N 39°15' W 076°33'0 0.0
2017-Apr-22 03:59N 39°15' W 076°33'0 0.0
2017-Apr-22 03:29N 39°15' W 076°33'0 0.0
2017-Apr-22 03:00N 39°15' W 076°33'0 0.0
2017-Apr-22 02:30N 39°15' W 076°33'0 0.0
2017-Apr-22 02:00N 39°15' W 076°33'0 0.0
2017-Apr-22 01:30N 39°15' W 076°33'0 0.0
2017-Apr-22 01:00N 39°15' W 076°33'0 0.0
2017-Apr-22 00:30N 39°15' W 076°33'0 0.0
2017-Apr-22 00:00N 39°15' W 076°33'0 0.0
2017-Apr-21 23:22N 39°15' W 076°33'0 0.0
2017-Apr-21 22:57N 39°15' W 076°33'0 0.0
2017-Apr-21 22:20N 39°15' W 076°33'0 0.0
2017-Apr-21 21:49N 39°15' W 076°33'0 0.0
2017-Apr-21 21:29N 39°15' W 076°33'0 0.0
2017-Apr-21 20:52N 39°15' W 076°33'0 0.0
2017-Apr-21 19:39N 39°15' W 076°33'0 0.0
2017-Apr-21 19:23N 39°15' W 076°33'0 0.0
2017-Apr-21 18:59N 39°15' W 076°33'0 0.0
2017-Apr-21 18:23N 39°15' W 076°33'0 0.0
2017-Apr-21 17:52N 39°15' W 076°33'0 0.0
2017-Apr-21 16:30N 39°15' W 076°33'0 0.0
2017-Apr-21 15:57N 39°15' W 076°33'0 0.0
2017-Apr-21 15:30N 39°15' W 076°33'1 1.6
2017-Apr-21 14:48N 39°15' W 076°34'0 0.0
2017-Apr-21 12:17N 39°15' W 076°34'0 0.0
2017-Apr-21 11:55N 39°15' W 076°34'0 0.1
2017-Apr-21 11:28N 39°15' W 076°34'1 2.4
2017-Apr-21 11:00N 39°15' W 076°33'0 0.0
2017-Apr-21 10:28N 39°15' W 076°33'0 0.0
2017-Apr-21 10:00N 39°15' W 076°33'0 0.0
2017-Apr-21 09:28N 39°15' W 076°33'0 0.0
2017-Apr-21 09:00N 39°15' W 076°33'0 0.0
2017-Apr-21 08:30N 39°15' W 076°33'0 0.0
2017-Apr-21 08:00N 39°15' W 076°33'0 0.0
2017-Apr-21 07:30N 39°15' W 076°33'0 0.0
2017-Apr-21 07:00N 39°15' W 076°33'0 0.0
2017-Apr-21 06:30N 39°15' W 076°33'0 0.0
2017-Apr-21 06:00N 39°15' W 076°33'0 0.0
2017-Apr-21 05:30N 39°15' W 076°33'1 1.3
2017-Apr-21 05:00N 39°15' W 076°33'5 9.4
2017-Apr-21 04:30N 39°12' W 076°29'4 8.5
2017-Apr-21 04:00N 39°12' W 076°23'5 9.1
2017-Apr-21 03:30N 39°15' W 076°19'6 9.3
2017-Apr-21 02:53N 39°19' W 076°13'410.8
2017-Apr-21 02:29N 39°21' W 076°09'610.5
2017-Apr-21 01:56N 39°24' W 076°02'410.4
2017-Apr-21 01:30N 39°28' W 075°59'510.3
2017-Apr-21 01:00N 39°31' W 075°53'5 9.5
2017-Apr-21 00:30N 39°32' W 075°48'510.3
2017-Apr-21 00:00N 39°33' W 075°41'5 9.6
2017-Apr-20 23:30N 39°34' W 075°35'4 7.8
2017-Apr-20 23:00N 39°30' W 075°33'510.3
2017-Apr-20 22:30N 39°25' W 075°31'510.8
2017-Apr-20 22:00N 39°21' W 075°26'510.7
2017-Apr-20 21:30N 39°17' W 075°22'4 9.0
2017-Apr-20 21:00N 39°13' W 075°21'3 6.2
2017-Apr-20 20:30N 39°11' W 075°24'0 0.0
2017-Apr-20 20:00N 39°11' W 075°24'0 0.0
2017-Apr-20 19:30N 39°11' W 075°24'0 0.0
2017-Apr-20 19:00N 39°11' W 075°24'0 0.0
2017-Apr-20 18:30N 39°11' W 075°24'0 0.0
2017-Apr-20 18:00N 39°11' W 075°24'0 0.0
2017-Apr-20 17:30N 39°11' W 075°24'0 0.0
2017-Apr-20 17:00N 39°11' W 075°24'0 0.0
2017-Apr-20 16:30N 39°11' W 075°24'0 0.0
2017-Apr-20 16:00N 39°11' W 075°24'0 0.0
2017-Apr-20 15:30N 39°11' W 075°24'0 0.0
2017-Apr-20 15:00N 39°11' W 075°24'0 0.0
2017-Apr-20 14:30N 39°11' W 075°24'0 0.0
2017-Apr-20 13:30N 39°11' W 075°24'0 0.0
2017-Apr-20 13:00N 39°11' W 075°24'  

Dump ship's entire track history